Aérodrome :
LOGIN :

S'inscrire | Disclaimer

   EN    FR    IT 

 










Légende :    VFR   VFR Marginal   IFR   IFR Intensif   IFR Très Intensif
Visi : 
Plafond : 
>= 8 km
>= 3000ft
5 à 8 km
1000 à 3000 ft
1500m à 5 km
500 à 1000 ft
800 à 1500m
200 à 500 ft
< 800m
< 200 ft
Symboles :   Orages  Brouillard  Fortes neiges  Fortes précipitations  Vent > 20 kt
SIGMETs :   Divers  Orages  Givrage  Turbulence  Onde Orograph.  Cendres Volcan.







- Altitude de l'aérodrome : 245 ft
- Code IATA : BIQ
- Voir les cartes d'approche


LFBZ - Biarritz

DERNIER METAR :
  • 200330Z AUTO 09003KT 5000 0650 R09/P2000 R27/0600D BCFG VV/// 04/03 Q1024 TEMPO 0500 FG

METARs EXPIRÉS :
  • 200300Z AUTO 16004KT 4100 BR NSC 04/04 Q1024 TEMPO 0500 FG VV///
  • 200230Z AUTO 15004KT 2500 1200 R09/P2000 R27/1700D BR NSC 03/02 Q1024 TEMPO 0500 FG VV///
  • 200200Z AUTO 11004KT 3400 BR NSC 03/02 Q1024 TEMPO 0500 FG VV///
  • 200130Z AUTO 10003KT 070V140 3700 0900 R09/P2000 R27/1300D BCFG NSC 03/03 Q1025 TEMPO 0500 FG VV///
  • 200100Z AUTO 11003KT 3100 BR NSC 03/03 Q1025 TEMPO 0500 FG VV///

TAF TAF LFBZ
Valide du 20 à 00h jusqu'au 21 à 00h UTC


192300Z 2000/2024 11005KT 4000 BR NSC
PROB30 2000/2007 0500 FG VV///
BECMG 2008/2010 CAVOK
BECMG 2020/2022 3000 BR
Pas de NOTAMs connus pour ce terrain.



MET'MAP, la Météo Aéronautique d'un coup d'oeil ! - Copyright ORBIFLY Décembre 2007 - Disclaimer

ORBIFLY MET'MAP TEAM :

Programmation & Développement : Alexandra Zaïnal
Conception & Développement : Baudouin d'Aumeries
Co-Programmation & Développement : Marc-Olivier Méhu
Soutien technique & logistique : Manuel Goepfert

Contact : metmap@orbifly.com




SOURCES & CREDITS :

   NOAA